createdAt,value
2018-04-24T00:01:00.201Z,7.68
2018-04-24T00:03:28.407Z,8.10
2018-04-24T00:05:56.598Z,8.25
2018-04-24T00:08:24.787Z,7.55
2018-04-24T00:10:52.879Z,7.70
2018-04-24T00:13:21.081Z,8.10
2018-04-24T00:15:49.278Z,7.95
2018-04-24T00:18:17.527Z,8.32
2018-04-24T00:20:45.772Z,8.15
2018-04-24T00:23:13.798Z,6.90
2018-04-24T00:25:41.940Z,7.75
2018-04-24T00:28:10.241Z,7.25
2018-04-24T00:30:38.437Z,8.25
2018-04-24T00:33:06.625Z,7.20
2018-04-24T00:35:34.738Z,7.62
2018-04-24T00:38:02.926Z,7.78
2018-04-24T00:40:31.023Z,7.75
2018-04-24T00:42:59.318Z,8.30
2018-04-24T00:45:27.502Z,7.70
2018-04-24T00:47:55.702Z,6.95
2018-04-24T00:50:24.004Z,7.28
2018-04-24T00:52:52.199Z,8.38
2018-04-24T00:55:20.487Z,7.82
2018-04-24T00:57:48.784Z,8.23
2018-04-24T01:00:17.081Z,6.95
2018-04-24T01:02:45.380Z,7.87
2018-04-24T01:05:13.582Z,8.27
2018-04-24T01:07:41.622Z,8.57
2018-04-24T01:10:09.862Z,8.10
2018-04-24T01:12:38.167Z,8.52
2018-04-24T01:15:06.252Z,7.90
2018-04-24T01:17:34.439Z,9.40
2018-04-24T01:20:02.632Z,8.43
2018-04-24T01:22:30.843Z,8.43
2018-04-24T01:24:58.928Z,8.40
2018-04-24T01:27:27.118Z,7.95
2018-04-24T01:29:55.208Z,7.60
2018-04-24T01:32:23.404Z,8.20
2018-04-24T01:34:51.702Z,8.85
2018-04-24T01:37:20.001Z,8.60
2018-04-24T01:39:48.091Z,8.98
2018-04-24T01:42:16.390Z,8.63
2018-04-24T01:44:44.680Z,8.38
2018-04-24T01:47:12.969Z,8.80
2018-04-24T01:49:41.987Z,8.82
2018-04-24T01:52:10.183Z,8.40
2018-04-24T01:54:38.384Z,9.13
2018-04-24T01:57:06.566Z,8.27
2018-04-24T01:59:34.772Z,8.55
2018-04-24T02:02:02.862Z,7.85
2018-04-24T02:04:30.966Z,7.82
2018-04-24T02:06:59.040Z,7.45
2018-04-24T02:09:27.242Z,7.15
2018-04-24T02:11:55.331Z,7.03
2018-04-24T02:14:23.637Z,8.05
2018-04-24T02:16:51.925Z,8.25
2018-04-24T02:19:20.322Z,8.30
2018-04-24T02:21:48.622Z,8.57
2018-04-24T02:24:16.827Z,7.80
2018-04-24T02:26:45.102Z,8.48
2018-04-24T02:29:13.406Z,7.15
2018-04-24T02:31:42.427Z,7.43
2018-04-24T02:34:10.608Z,7.70
2018-04-24T02:36:38.698Z,7.68
2018-04-24T02:39:06.898Z,7.20
2018-04-24T02:41:35.098Z,7.45
2018-04-24T02:44:03.284Z,7.87
2018-04-24T02:46:31.387Z,7.53
2018-04-24T02:48:59.585Z,7.93
2018-04-24T02:51:27.663Z,8.93
2018-04-24T02:53:55.867Z,8.15
2018-04-24T02:56:23.960Z,7.60
2018-04-24T02:58:52.261Z,7.50
2018-04-24T03:01:20.440Z,7.65
2018-04-24T03:03:48.741Z,7.62
2018-04-24T03:06:16.943Z,8.18
2018-04-24T03:08:45.241Z,7.40
2018-04-24T03:11:13.552Z,7.85
2018-04-24T03:13:41.719Z,6.87
2018-04-24T03:16:09.922Z,7.40
2018-04-24T03:18:38.103Z,8.30
2018-04-24T03:21:06.306Z,8.13
2018-04-24T03:23:34.500Z,7.97
2018-04-24T03:26:02.588Z,8.07
2018-04-24T03:28:30.778Z,7.40
2018-04-24T03:30:58.989Z,9.25
2018-04-24T03:33:27.184Z,7.70
2018-04-24T03:35:55.481Z,7.90
2018-04-24T03:38:23.767Z,7.82
2018-04-24T03:40:51.860Z,7.30
2018-04-24T03:43:20.152Z,8.23
2018-04-24T03:45:48.361Z,8.38
2018-04-24T03:48:16.557Z,8.40
2018-04-24T03:50:44.638Z,9.38
2018-04-24T03:53:12.838Z,9.35
2018-04-24T03:55:40.888Z,7.90
2018-04-24T03:58:09.121Z,7.62
2018-04-24T04:00:37.218Z,8.52
2018-04-24T04:03:05.518Z,7.50
2018-04-24T04:05:33.599Z,8.43
2018-04-24T04:08:01.822Z,9.02
2018-04-24T04:10:29.879Z,8.30
2018-04-24T04:12:57.981Z,7.68
2018-04-24T04:15:26.382Z,7.87
2018-04-24T04:17:55.417Z,7.97
2018-04-24T04:20:23.807Z,8.25
2018-04-24T04:22:52.085Z,8.38
2018-04-24T04:25:20.278Z,9.35
2018-04-24T04:27:48.586Z,8.80
2018-04-24T04:30:16.873Z,8.88
2018-04-24T04:32:44.963Z,8.77
2018-04-24T04:35:13.170Z,8.38
2018-04-24T04:37:41.178Z,8.55
2018-04-24T04:40:09.361Z,9.35
2018-04-24T04:42:37.452Z,8.30
2018-04-24T04:45:05.742Z,9.60
2018-04-24T04:47:33.930Z,10.30
2018-04-24T04:50:02.127Z,9.43
2018-04-24T04:52:30.220Z,8.60
2018-04-24T04:54:58.418Z,8.52
2018-04-24T04:57:26.614Z,8.35
2018-04-24T04:59:54.908Z,9.07
2018-04-24T05:02:23.299Z,8.45
2018-04-24T05:04:51.601Z,7.87
2018-04-24T05:07:19.885Z,7.55
2018-04-24T05:09:48.187Z,8.07
2018-04-24T05:12:16.384Z,8.93
2018-04-24T05:14:44.588Z,9.13
2018-04-24T05:17:12.667Z,9.00
2018-04-24T05:19:40.794Z,7.75
2018-04-24T05:22:08.968Z,8.60
2018-04-24T05:24:37.161Z,9.40
2018-04-24T05:27:05.360Z,8.80
2018-04-24T05:29:33.544Z,8.48
2018-04-24T05:32:01.639Z,9.20
2018-04-24T05:34:29.830Z,8.55
2018-04-24T05:36:58.126Z,8.48
2018-04-24T05:39:26.424Z,7.70
2018-04-24T05:41:54.516Z,7.97
2018-04-24T05:44:22.803Z,7.37
2018-04-24T05:46:51.221Z,8.25
2018-04-24T05:49:19.501Z,8.23
2018-04-24T05:51:47.602Z,8.80
2018-04-24T05:54:15.782Z,8.60
2018-04-24T05:56:43.999Z,8.02
2018-04-24T05:59:12.178Z,7.70
2018-04-24T06:01:40.388Z,8.57
2018-04-24T06:04:08.419Z,7.97
2018-04-24T06:06:36.559Z,7.95
2018-04-24T06:09:04.758Z,8.23
2018-04-24T06:11:32.943Z,7.35
2018-04-24T06:14:01.137Z,8.00
2018-04-24T06:16:29.433Z,7.32
2018-04-24T06:18:57.741Z,6.57
2018-04-24T06:21:26.026Z,7.43
2018-04-24T06:23:54.223Z,7.07
2018-04-24T06:26:22.620Z,7.32
2018-04-24T06:28:50.711Z,6.68
2018-04-24T06:31:18.806Z,6.90
2018-04-24T06:33:46.997Z,7.60
2018-04-24T06:36:15.195Z,7.20
2018-04-24T06:38:43.290Z,7.62
2018-04-24T06:41:11.486Z,6.95
2018-04-24T06:43:39.588Z,6.93
2018-04-24T06:46:07.676Z,6.22
2018-04-24T06:48:35.660Z,6.60
2018-04-24T06:51:03.856Z,6.12
2018-04-24T06:53:32.148Z,5.65
2018-04-24T06:56:00.549Z,6.72
2018-04-24T06:58:28.630Z,5.97
2018-04-24T07:00:57.042Z,5.80
2018-04-24T07:03:25.238Z,5.97
2018-04-24T07:05:53.418Z,6.60
2018-04-24T07:08:21.520Z,7.40
2018-04-24T07:10:49.717Z,6.35
2018-04-24T07:13:17.805Z,5.55
2018-04-24T07:15:46.008Z,5.47
2018-04-24T07:18:14.097Z,6.25
2018-04-24T07:20:42.299Z,6.18
2018-04-24T07:23:10.379Z,5.47
2018-04-24T07:25:38.564Z,5.53
2018-04-24T07:28:06.660Z,6.03
2018-04-24T07:30:34.761Z,6.37
2018-04-24T07:33:02.860Z,6.12
2018-04-24T07:35:31.140Z,6.25
2018-04-24T07:37:59.448Z,6.00
2018-04-24T07:40:27.846Z,5.65
2018-04-24T07:42:56.042Z,6.03
2018-04-24T07:45:24.236Z,6.28
2018-04-24T07:47:52.327Z,7.00
2018-04-24T07:50:20.510Z,7.35
2018-04-24T07:52:48.608Z,6.62
2018-04-24T07:55:16.805Z,6.30
2018-04-24T07:57:44.992Z,6.28
2018-04-24T08:00:13.198Z,6.18
2018-04-24T08:02:41.281Z,6.53
2018-04-24T08:05:09.478Z,6.20
2018-04-24T08:07:37.566Z,5.22
2018-04-24T08:10:05.770Z,5.25
2018-04-24T08:12:34.066Z,5.90
2018-04-24T08:15:02.157Z,5.37
2018-04-24T08:17:30.353Z,5.65
2018-04-24T08:19:58.654Z,5.32
2018-04-24T08:22:26.841Z,6.00
2018-04-24T08:24:55.029Z,6.00
2018-04-24T08:27:23.338Z,5.65
2018-04-24T08:29:51.524Z,5.60
2018-04-24T08:32:19.618Z,5.80
2018-04-24T08:34:47.713Z,6.03
2018-04-24T08:37:15.804Z,5.37
2018-04-24T08:39:43.898Z,5.78
2018-04-24T08:42:12.095Z,5.72
2018-04-24T08:44:40.273Z,6.40
2018-04-24T08:47:08.478Z,5.47
2018-04-24T08:49:36.584Z,4.95
2018-04-24T08:52:04.857Z,5.07
2018-04-24T08:54:33.067Z,5.70
2018-04-24T08:57:01.377Z,7.53
2018-04-24T08:59:29.392Z,5.72
2018-04-24T09:01:57.720Z,6.53
2018-04-24T09:04:25.949Z,7.20
2018-04-24T09:06:54.225Z,5.95
2018-04-24T09:09:22.342Z,6.18
2018-04-24T09:11:50.529Z,5.50
2018-04-24T09:14:18.606Z,6.10
2018-04-24T09:16:46.819Z,5.57
2018-04-24T09:19:14.897Z,5.78
2018-04-24T09:21:43.099Z,5.07
2018-04-24T09:24:11.187Z,6.40
2018-04-24T09:26:39.377Z,6.32
2018-04-24T09:29:07.788Z,5.65
2018-04-24T09:31:35.975Z,5.45
2018-04-24T09:34:04.269Z,5.57
2018-04-24T09:36:32.572Z,5.43
2018-04-24T09:39:00.777Z,5.93
2018-04-24T09:41:28.905Z,5.00
2018-04-24T09:43:56.945Z,6.83
2018-04-24T09:46:25.248Z,6.13
2018-04-24T09:48:53.459Z,5.50
2018-04-24T09:51:21.719Z,6.57
2018-04-24T09:53:49.827Z,6.97
2018-04-24T09:56:18.012Z,7.90
2018-04-24T09:58:46.123Z,6.57
2018-04-24T10:01:14.299Z,6.27
2018-04-24T10:03:42.391Z,7.00
2018-04-24T10:06:10.605Z,6.50
2018-04-24T10:08:38.989Z,6.27
2018-04-24T10:11:07.288Z,5.90
2018-04-24T10:13:35.613Z,5.90
2018-04-24T10:16:03.878Z,5.83
2018-04-24T10:18:32.079Z,5.60
2018-04-24T10:21:00.370Z,5.60
2018-04-24T10:23:28.387Z,5.50
2018-04-24T10:25:56.457Z,6.33
2018-04-24T10:28:24.544Z,6.00
2018-04-24T10:30:52.751Z,6.03
2018-04-24T10:33:20.844Z,5.40
2018-04-24T10:35:49.017Z,5.47
2018-04-24T10:38:17.116Z,6.20
2018-04-24T10:40:45.311Z,5.30
2018-04-24T10:43:13.612Z,5.67
2018-04-24T10:45:41.800Z,5.00
2018-04-24T10:48:09.925Z,5.00
2018-04-24T10:50:38.304Z,4.90
2018-04-24T10:53:06.394Z,5.30
2018-04-24T10:55:36.319Z,5.00
2018-04-24T10:58:04.611Z,4.87
2018-04-24T11:00:32.938Z,4.33
2018-04-24T11:03:01.206Z,4.23
2018-04-24T11:05:29.232Z,5.23
2018-04-24T11:07:57.499Z,5.20
2018-04-24T11:10:25.694Z,4.47
2018-04-24T11:12:53.892Z,5.30
2018-04-24T11:15:21.978Z,5.70
2018-04-24T11:17:50.159Z,4.67
2018-04-24T11:20:18.266Z,5.07
2018-04-24T11:22:46.574Z,4.33
2018-04-24T11:25:14.752Z,4.40
2018-04-24T11:27:42.951Z,5.10
2018-04-24T11:30:11.307Z,5.23
2018-04-24T11:32:39.740Z,4.00
2018-04-24T11:35:08.041Z,4.17
2018-04-24T11:37:36.248Z,3.50
2018-04-24T11:40:04.534Z,2.93
2018-04-24T11:42:32.740Z,2.63
2018-04-24T11:45:00.920Z,3.60
2018-04-24T11:47:29.118Z,2.90
2018-04-24T11:49:57.322Z,3.33
2018-04-24T11:52:25.413Z,3.30
2018-04-24T11:54:53.491Z,2.90
2018-04-24T11:57:21.603Z,3.40
2018-04-24T11:59:49.893Z,2.80
2018-04-24T12:02:18.193Z,3.10
2018-04-24T12:04:46.377Z,1.90
2018-04-24T12:07:14.579Z,3.43
2018-04-24T12:09:42.865Z,3.40
2018-04-24T12:12:11.069Z,3.07
2018-04-24T12:14:39.161Z,2.87
2018-04-24T12:17:07.239Z,3.03
2018-04-24T12:19:35.339Z,2.60
2018-04-24T12:22:03.538Z,4.37
2018-04-24T12:24:31.726Z,2.60
2018-04-24T12:26:59.918Z,2.20
2018-04-24T12:29:28.031Z,2.53
2018-04-24T12:31:56.208Z,3.00
2018-04-24T12:34:24.309Z,3.17
2018-04-24T12:36:52.491Z,3.00
2018-04-24T12:39:20.695Z,2.83
2018-04-24T12:41:48.783Z,3.10
2018-04-24T12:44:16.979Z,2.93
2018-04-24T12:46:45.060Z,3.90
2018-04-24T12:49:13.224Z,3.73
2018-04-24T12:51:41.606Z,3.60
2018-04-24T12:54:10.070Z,3.57
2018-04-24T12:56:38.145Z,3.83
2018-04-24T12:59:06.609Z,3.50
2018-04-24T13:01:34.959Z,3.53
2018-04-24T13:04:03.140Z,4.03
2018-04-24T13:06:31.337Z,3.80
2018-04-24T13:08:59.525Z,3.73
2018-04-24T13:11:27.623Z,3.90
2018-04-24T13:13:55.657Z,4.00
2018-04-24T13:16:23.718Z,3.83
2018-04-24T13:18:51.797Z,3.70
2018-04-24T13:21:19.893Z,3.60
2018-04-24T13:23:47.982Z,4.30
2018-04-24T13:26:16.083Z,3.93
2018-04-24T13:28:44.377Z,4.20
2018-04-24T13:31:12.730Z,4.10
2018-04-24T13:33:41.077Z,3.97
2018-04-24T13:36:09.364Z,3.70
2018-04-24T13:38:37.462Z,3.93
2018-04-24T13:41:05.651Z,4.33
2018-04-24T13:43:33.866Z,4.50
2018-04-24T13:46:02.145Z,4.30
2018-04-24T13:48:30.342Z,3.97
2018-04-24T13:50:58.528Z,4.67
2018-04-24T13:53:26.730Z,4.20
2018-04-24T13:55:54.920Z,5.03
2018-04-24T13:58:23.022Z,4.70
2018-04-24T14:00:51.263Z,4.60
2018-04-24T14:03:19.400Z,4.27
2018-04-24T14:05:47.486Z,4.30
2018-04-24T14:08:15.793Z,4.80
2018-04-24T14:10:43.886Z,4.60
2018-04-24T14:13:12.277Z,4.43
2018-04-24T14:15:40.469Z,5.53
2018-04-24T14:18:08.570Z,4.87
2018-04-24T14:20:36.757Z,4.07
2018-04-24T14:23:04.955Z,5.00
2018-04-24T14:25:33.169Z,4.83
2018-04-24T14:28:01.487Z,4.30
2018-04-24T14:30:29.852Z,4.57
2018-04-24T14:32:58.050Z,4.27
2018-04-24T14:35:26.132Z,5.00
2018-04-24T14:37:54.232Z,4.80
2018-04-24T14:40:22.346Z,6.90
2018-04-24T14:42:50.384Z,4.80
2018-04-24T14:45:18.515Z,4.73
2018-04-24T14:47:46.693Z,5.20
2018-04-24T14:50:15.002Z,5.20
2018-04-24T14:52:43.285Z,5.23
2018-04-24T14:55:11.702Z,4.47
2018-04-24T14:57:40.085Z,4.87
2018-04-24T15:00:08.385Z,5.03
2018-04-24T15:02:36.470Z,5.33
2018-04-24T15:05:05.907Z,5.20
2018-04-24T15:07:34.203Z,5.07
2018-04-24T15:10:02.385Z,4.87
2018-04-24T15:12:30.488Z,4.93
2018-04-24T15:14:58.568Z,4.60
2018-04-24T15:17:26.674Z,5.00
2018-04-24T15:19:54.971Z,5.67
2018-04-24T15:22:22.949Z,5.30
2018-04-24T15:24:51.050Z,5.20
2018-04-24T15:27:19.663Z,5.60
2018-04-24T15:29:47.937Z,5.00
2018-04-24T15:32:16.242Z,4.77
2018-04-24T15:34:44.545Z,4.93
2018-04-24T15:37:12.728Z,4.83
2018-04-24T15:39:40.927Z,4.57
2018-04-24T15:42:09.119Z,4.57
2018-04-24T15:44:37.216Z,5.50
2018-04-24T15:47:05.409Z,5.00
2018-04-24T15:49:33.507Z,4.43
2018-04-24T15:52:01.591Z,4.40
2018-04-24T15:54:29.782Z,4.87
2018-04-24T15:56:57.977Z,5.07
2018-04-24T15:59:26.081Z,4.90
2018-04-24T16:01:54.371Z,4.73
2018-04-24T16:04:22.466Z,5.73
2018-04-24T16:06:50.530Z,4.30
2018-04-24T16:09:18.742Z,5.10
2018-04-24T16:11:47.044Z,4.93
2018-04-24T16:14:15.245Z,4.87
2018-04-24T16:16:43.385Z,5.60
2018-04-24T16:19:11.626Z,5.43
2018-04-24T16:21:40.033Z,5.20
2018-04-24T16:24:08.329Z,5.40
2018-04-24T16:26:36.526Z,5.07
2018-04-24T16:29:04.717Z,5.30
2018-04-24T16:31:32.796Z,4.70
2018-04-24T16:34:00.998Z,5.17
2018-04-24T16:36:29.183Z,4.57
2018-04-24T16:38:57.279Z,5.10
2018-04-24T16:41:25.265Z,4.03
2018-04-24T16:43:53.478Z,5.00
2018-04-24T16:46:21.757Z,7.40
2018-04-24T16:48:49.878Z,6.47
2018-04-24T16:51:18.158Z,5.50
2018-04-24T16:53:46.451Z,5.40
2018-04-24T16:56:14.831Z,5.23
2018-04-24T16:58:43.035Z,5.13
2018-04-24T17:01:11.136Z,5.20
2018-04-24T17:03:39.336Z,5.63
2018-04-24T17:06:07.817Z,5.80
2018-04-24T17:08:35.930Z,4.63
2018-04-24T17:11:04.008Z,5.40
2018-04-24T17:13:32.315Z,5.17
2018-04-24T17:16:00.494Z,5.77
2018-04-24T17:18:28.603Z,5.10
2018-04-24T17:20:57.214Z,5.00
2018-04-24T17:23:25.297Z,4.53
2018-04-24T17:25:53.704Z,5.00
2018-04-24T17:28:21.989Z,5.30
2018-04-24T17:30:50.055Z,5.97
2018-04-24T17:33:18.264Z,6.00
2018-04-24T17:35:46.564Z,6.00
2018-04-24T17:38:14.958Z,5.90
2018-04-24T17:40:43.255Z,6.50
2018-04-24T17:43:11.356Z,6.20
2018-04-24T17:45:39.567Z,5.97
2018-04-24T17:48:07.756Z,6.43
2018-04-24T17:50:36.242Z,7.00
2018-04-24T17:53:04.336Z,8.20
2018-04-24T17:55:32.540Z,7.27
2018-04-24T17:58:00.723Z,7.33
2018-04-24T18:00:28.834Z,7.57
2018-04-24T18:02:57.225Z,6.82
2018-04-24T18:05:25.408Z,6.20
2018-04-24T18:07:53.510Z,6.90
2018-04-24T18:10:21.596Z,8.23
2018-04-24T18:12:49.614Z,6.30
2018-04-24T18:15:17.677Z,6.80
2018-04-24T18:17:45.766Z,6.77
2018-04-24T18:20:13.867Z,6.93
2018-04-24T18:22:42.067Z,7.90
2018-04-24T18:25:11.188Z,7.30
2018-04-24T18:27:39.329Z,6.90
2018-04-24T18:30:07.454Z,7.53
2018-04-24T18:32:35.553Z,7.90
2018-04-24T18:35:03.753Z,7.85
2018-04-24T18:37:31.933Z,8.80
2018-04-24T18:40:00.035Z,8.80
2018-04-24T18:42:28.133Z,8.50
2018-04-24T18:44:56.829Z,7.05
2018-04-24T18:47:25.006Z,8.10
2018-04-24T18:49:53.211Z,8.88
2018-04-24T18:52:21.525Z,7.65
2018-04-24T18:54:49.622Z,8.82
2018-04-24T18:57:17.547Z,8.45
2018-04-24T18:59:45.692Z,9.32
2018-04-24T19:02:13.892Z,8.52
2018-04-24T19:04:42.289Z,9.30
2018-04-24T19:07:10.390Z,9.27
2018-04-24T19:09:38.568Z,8.20
2018-04-24T19:12:06.769Z,8.68
2018-04-24T19:14:34.968Z,7.90
2018-04-24T19:17:03.974Z,8.93
2018-04-24T19:19:32.173Z,9.20
2018-04-24T19:22:00.247Z,9.82
2018-04-24T19:24:28.447Z,9.43
2018-04-24T19:26:56.738Z,8.55
2018-04-24T19:29:26.268Z,9.30
2018-04-24T19:31:54.614Z,8.18
2018-04-24T19:34:22.780Z,9.63
2018-04-24T19:36:50.861Z,9.30
2018-04-24T19:39:19.141Z,8.90
2018-04-24T19:41:47.459Z,9.15
2018-04-24T19:44:15.641Z,10.13
2018-04-24T19:46:43.830Z,8.95
2018-04-24T19:49:12.421Z,9.70
2018-04-24T19:51:40.525Z,10.15
2018-04-24T19:54:08.625Z,9.45
2018-04-24T19:56:36.718Z,9.88
2018-04-24T19:59:04.908Z,10.57
2018-04-24T20:01:33.109Z,8.68
2018-04-24T20:04:01.192Z,10.07
2018-04-24T20:06:29.292Z,9.75
2018-04-24T20:08:57.492Z,10.50
2018-04-24T20:11:25.699Z,9.75
2018-04-24T20:13:53.865Z,10.68
2018-04-24T20:16:21.967Z,9.98
2018-04-24T20:18:50.185Z,10.65
2018-04-24T20:21:18.359Z,10.85
2018-04-24T20:23:46.642Z,10.55
2018-04-24T20:26:15.162Z,9.23
2018-04-24T20:28:43.236Z,9.68
2018-04-24T20:31:11.328Z,9.95
2018-04-24T20:33:39.422Z,10.82
2018-04-24T20:36:07.620Z,10.45
2018-04-24T20:38:35.856Z,10.70
2018-04-24T20:41:04.104Z,10.52
2018-04-24T20:43:32.507Z,10.65
2018-04-24T20:46:00.705Z,10.48
2018-04-24T20:48:28.801Z,10.05
2018-04-24T20:50:57.601Z,11.30
2018-04-24T20:53:25.830Z,11.57
2018-04-24T20:55:54.003Z,11.43
2018-04-24T20:58:22.087Z,11.00
2018-04-24T21:00:50.173Z,11.18
2018-04-24T21:03:18.270Z,11.30
2018-04-24T21:05:46.462Z,10.02
2018-04-24T21:08:14.562Z,11.68
2018-04-24T21:10:42.761Z,11.32
2018-04-24T21:13:10.992Z,11.00
2018-04-24T21:15:39.653Z,10.25
2018-04-24T21:18:07.735Z,10.70
2018-04-24T21:20:35.838Z,11.05
2018-04-24T21:23:04.038Z,11.50
2018-04-24T21:25:32.438Z,10.93
2018-04-24T21:28:00.517Z,10.13
2018-04-24T21:30:28.814Z,11.95
2018-04-24T21:32:57.105Z,11.75
2018-04-24T21:35:25.317Z,12.57
2018-04-24T21:37:53.613Z,11.65
2018-04-24T21:40:21.793Z,12.77
2018-04-24T21:42:49.884Z,12.50
2018-04-24T21:45:19.418Z,12.68
2018-04-24T21:47:47.518Z,12.13
2018-04-24T21:50:15.599Z,11.30
2018-04-24T21:52:43.702Z,11.52
2018-04-24T21:55:11.980Z,11.57
2018-04-24T21:57:40.180Z,10.98
2018-04-24T22:00:08.280Z,11.75
2018-04-24T22:02:36.478Z,12.00
2018-04-24T22:05:04.668Z,12.10
2018-04-24T22:07:32.871Z,12.18
2018-04-24T22:10:01.058Z,11.07
2018-04-24T22:12:29.161Z,11.90
2018-04-24T22:14:57.228Z,11.93
2018-04-24T22:17:25.542Z,11.85
2018-04-24T22:19:53.617Z,11.45
2018-04-24T22:22:21.927Z,11.68
2018-04-24T22:24:49.946Z,11.23
2018-04-24T22:27:18.233Z,12.35
2018-04-24T22:29:46.403Z,11.25
2018-04-24T22:32:14.602Z,12.05
2018-04-24T22:34:42.904Z,11.88
2018-04-24T22:37:11.187Z,12.45
2018-04-24T22:39:39.275Z,12.40
2018-04-24T22:42:07.484Z,11.60
2018-04-24T22:44:35.572Z,11.85
2018-04-24T22:47:03.960Z,12.30
2018-04-24T22:49:32.155Z,12.90
2018-04-24T22:52:00.462Z,11.65
2018-04-24T22:54:28.802Z,11.38
2018-04-24T22:56:57.059Z,11.02
2018-04-24T22:59:25.452Z,12.48
2018-04-24T23:01:53.748Z,11.93
2018-04-24T23:04:21.953Z,11.10
2018-04-24T23:06:50.037Z,11.55
2018-04-24T23:09:18.136Z,12.15
2018-04-24T23:11:46.317Z,12.35
2018-04-24T23:14:14.487Z,13.95
2018-04-24T23:16:42.608Z,13.15
2018-04-24T23:19:10.805Z,11.70
2018-04-24T23:21:38.999Z,12.45
2018-04-24T23:24:07.094Z,12.07
2018-04-24T23:26:35.380Z,11.60
2018-04-24T23:29:03.578Z,13.52
2018-04-24T23:31:31.877Z,14.13
2018-04-24T23:34:00.180Z,12.77
2018-04-24T23:36:28.466Z,13.52
2018-04-24T23:38:56.758Z,12.75
2018-04-24T23:41:25.064Z,13.10
2018-04-24T23:43:53.360Z,11.70
2018-04-24T23:46:21.478Z,12.80
2018-04-24T23:48:49.580Z,11.88
2018-04-24T23:51:17.851Z,13.27
2018-04-24T23:53:46.035Z,13.30
2018-04-24T23:56:14.757Z,12.95
2018-04-24T23:58:43.413Z,12.55
